createdAt,value
2017-09-08T00:01:16.815Z,20.00
2017-09-08T00:03:44.366Z,18.70
2017-09-08T00:06:11.879Z,15.30
2017-09-08T00:08:39.445Z,17.10
2017-09-08T00:11:06.973Z,13.37
2017-09-08T00:13:35.596Z,15.40
2017-09-08T00:16:03.126Z,16.03
2017-09-08T00:18:30.683Z,18.27
2017-09-08T00:20:58.243Z,16.30
2017-09-08T00:23:25.797Z,16.03
2017-09-08T00:25:53.345Z,13.00
2017-09-08T00:28:20.886Z,11.40
2017-09-08T00:30:48.815Z,15.60
2017-09-08T00:33:16.350Z,13.03
2017-09-08T00:35:43.904Z,13.70
2017-09-08T00:38:11.442Z,24.20
2017-09-08T00:40:39.729Z,19.30
2017-09-08T00:43:08.096Z,15.57
2017-09-08T00:45:35.631Z,18.67
2017-09-08T00:48:03.457Z,18.13
2017-09-08T00:50:30.982Z,19.50
2017-09-08T00:52:58.511Z,16.30
2017-09-08T00:55:26.059Z,21.93
2017-09-08T00:57:53.603Z,20.93
2017-09-08T01:00:21.570Z,20.77
2017-09-08T01:02:49.124Z,19.23
2017-09-08T01:05:16.691Z,11.60
2017-09-08T01:07:44.242Z,19.77
2017-09-08T01:10:11.767Z,24.50
2017-09-08T01:12:39.322Z,16.77
2017-09-08T01:15:06.848Z,16.10
2017-09-08T01:17:34.411Z,13.87
2017-09-08T01:20:01.989Z,24.80
2017-09-08T01:22:29.532Z,26.53
2017-09-08T01:24:57.106Z,19.93
2017-09-08T01:27:24.650Z,16.77
2017-09-08T01:29:52.255Z,17.63
2017-09-08T01:32:19.787Z,13.63
2017-09-08T01:34:47.325Z,23.63
2017-09-08T01:37:14.867Z,15.60
2017-09-08T01:39:42.412Z,13.93
2017-09-08T01:42:09.946Z,21.60
2017-09-08T01:44:37.485Z,16.17
2017-09-08T01:47:05.036Z,18.93
2017-09-08T01:49:32.595Z,16.93
2017-09-08T01:52:00.131Z,15.30
2017-09-08T01:54:27.720Z,21.20
2017-09-08T01:56:55.248Z,19.93
2017-09-08T01:59:22.791Z,18.77
2017-09-08T02:01:50.338Z,24.00
2017-09-08T02:04:19.050Z,14.47
2017-09-08T02:06:46.598Z,15.97
2017-09-08T02:09:14.158Z,18.37
2017-09-08T02:11:41.719Z,15.80
2017-09-08T02:14:09.251Z,18.80
2017-09-08T02:16:36.785Z,10.77
2017-09-08T02:19:04.315Z,17.77
2017-09-08T02:21:37.865Z,16.97
2017-09-08T02:24:05.400Z,19.40
2017-09-08T02:26:34.455Z,11.63
2017-09-08T02:29:01.993Z,16.90
2017-09-08T02:31:29.526Z,17.57
2017-09-08T02:33:57.063Z,17.50
2017-09-08T02:36:24.603Z,14.00
2017-09-08T02:38:52.185Z,21.83
2017-09-08T02:41:20.506Z,15.53
2017-09-08T02:43:48.838Z,18.10
2017-09-08T02:46:16.411Z,18.43
2017-09-08T02:48:43.956Z,12.13
2017-09-08T02:51:11.651Z,17.83
2017-09-08T02:53:39.203Z,21.40
2017-09-08T02:56:07.127Z,19.70
2017-09-08T02:58:34.668Z,18.60
2017-09-08T03:01:02.197Z,20.13
2017-09-08T03:03:29.752Z,22.53
2017-09-08T03:05:57.305Z,14.90
2017-09-08T03:08:24.869Z,12.50
2017-09-08T03:10:53.196Z,12.80
2017-09-08T03:13:20.752Z,18.27
2017-09-08T03:15:48.303Z,14.30
2017-09-08T03:18:15.851Z,12.77
2017-09-08T03:20:43.674Z,13.80
2017-09-08T03:23:11.989Z,12.27
2017-09-08T03:25:39.521Z,9.50
2017-09-08T03:28:07.069Z,11.50
2017-09-08T03:30:34.627Z,19.63
2017-09-08T03:33:02.187Z,15.40
2017-09-08T03:35:29.750Z,14.80
2017-09-08T03:37:57.308Z,13.80
2017-09-08T03:40:24.855Z,12.97
2017-09-08T03:42:52.419Z,18.13
2017-09-08T03:45:19.983Z,9.43
2017-09-08T03:47:48.279Z,21.17
2017-09-08T03:50:15.830Z,20.50
2017-09-08T03:52:43.359Z,12.03
2017-09-08T03:55:10.926Z,17.50
2017-09-08T03:57:38.477Z,15.30
2017-09-08T04:00:06.041Z,21.90
2017-09-08T04:02:33.928Z,12.90
2017-09-08T04:05:01.459Z,11.67
2017-09-08T04:07:29.035Z,12.67
2017-09-08T04:09:56.587Z,15.63
2017-09-08T04:12:24.122Z,21.27
2017-09-08T04:14:51.679Z,14.43
2017-09-08T04:17:19.214Z,11.20
2017-09-08T04:19:46.752Z,9.93
2017-09-08T04:22:14.287Z,10.10
2017-09-08T04:24:41.819Z,13.73
2017-09-08T04:27:09.380Z,14.10
2017-09-08T04:29:36.924Z,15.77
2017-09-08T04:32:04.482Z,19.30
2017-09-08T04:34:32.032Z,8.50
2017-09-08T04:36:59.605Z,10.30
2017-09-08T04:39:27.150Z,13.30
2017-09-08T04:41:54.762Z,13.60
2017-09-08T04:44:23.081Z,7.73
2017-09-08T04:46:50.616Z,14.93
2017-09-08T04:49:18.183Z,7.40
2017-09-08T04:51:46.486Z,17.50
2017-09-08T04:54:14.139Z,14.77
2017-09-08T04:56:41.719Z,15.57
2017-09-08T04:59:09.266Z,11.83
2017-09-08T05:01:36.837Z,12.80
2017-09-08T05:04:04.368Z,13.80
2017-09-08T05:06:31.903Z,10.00
2017-09-08T05:08:59.438Z,10.27
2017-09-08T05:11:27.015Z,23.70
2017-09-08T05:13:55.308Z,7.50
2017-09-08T05:16:22.861Z,10.50
2017-09-08T05:18:50.416Z,8.23
2017-09-08T05:21:17.973Z,14.40
2017-09-08T05:23:45.541Z,13.77
2017-09-08T05:26:13.047Z,7.13
2017-09-08T05:28:40.582Z,12.83
2017-09-08T05:31:08.113Z,9.87
2017-09-08T05:33:36.451Z,22.97
2017-09-08T05:36:04.031Z,16.87
2017-09-08T05:38:31.569Z,16.20
2017-09-08T05:40:59.095Z,6.70
2017-09-08T05:43:26.614Z,10.83
2017-09-08T05:45:55.365Z,17.30
2017-09-08T05:48:22.906Z,12.77
2017-09-08T05:50:50.469Z,10.50
2017-09-08T05:53:18.043Z,9.77
2017-09-08T05:55:45.604Z,21.33
2017-09-08T05:58:13.136Z,13.93
2017-09-08T06:00:41.464Z,12.20
2017-09-08T06:03:09.029Z,17.63
2017-09-08T06:05:36.560Z,13.07
2017-09-08T06:08:04.110Z,7.47
2017-09-08T06:10:31.662Z,13.23
2017-09-08T06:12:59.212Z,14.03
2017-09-08T06:15:26.766Z,11.83
2017-09-08T06:17:55.066Z,8.63
2017-09-08T06:20:22.924Z,7.33
2017-09-08T06:22:50.449Z,12.80
2017-09-08T06:25:17.981Z,14.80
2017-09-08T06:27:46.585Z,14.13
2017-09-08T06:30:14.123Z,12.87
2017-09-08T06:32:41.680Z,13.40
2017-09-08T06:35:09.222Z,13.97
2017-09-08T06:37:36.815Z,10.20
2017-09-08T06:40:04.443Z,11.93
2017-09-08T06:42:31.971Z,10.80
2017-09-08T06:44:59.526Z,8.13
2017-09-08T06:47:27.069Z,14.33
2017-09-08T06:49:54.611Z,8.80
2017-09-08T06:52:22.926Z,15.50
2017-09-08T06:54:50.503Z,15.93
2017-09-08T06:57:18.114Z,8.63
2017-09-08T06:59:46.475Z,14.80
2017-09-08T07:02:14.042Z,12.23
2017-09-08T07:04:42.364Z,10.63
2017-09-08T07:07:10.232Z,9.90
2017-09-08T07:09:37.796Z,8.87
2017-09-08T07:12:05.350Z,7.13
2017-09-08T07:14:32.910Z,11.30
2017-09-08T07:17:00.534Z,8.63
2017-09-08T07:19:28.083Z,12.57
2017-09-08T07:21:56.555Z,8.13
2017-09-08T07:24:24.464Z,8.10
2017-09-08T07:26:52.031Z,10.90
2017-09-08T07:29:19.598Z,13.77
2017-09-08T07:31:47.153Z,8.23
2017-09-08T07:34:14.700Z,17.83
2017-09-08T07:36:42.407Z,9.50
2017-09-08T07:39:09.930Z,12.67
2017-09-08T07:41:37.501Z,9.40
2017-09-08T07:44:05.061Z,8.00
2017-09-08T07:46:32.615Z,16.53
2017-09-08T07:49:00.195Z,16.70
2017-09-08T07:51:27.736Z,8.70
2017-09-08T07:53:55.281Z,21.27
2017-09-08T07:56:22.822Z,8.47
2017-09-08T07:58:50.373Z,8.90
2017-09-08T08:01:18.666Z,13.60
2017-09-08T08:03:46.211Z,10.40
2017-09-08T08:06:13.852Z,6.60
2017-09-08T08:08:41.435Z,7.20
2017-09-08T08:11:08.998Z,10.30
2017-09-08T08:13:36.536Z,9.97
2017-09-08T08:16:04.849Z,15.63
2017-09-08T08:18:32.400Z,7.50
2017-09-08T08:20:59.977Z,9.60
2017-09-08T08:23:27.534Z,16.77
2017-09-08T08:25:55.069Z,8.90
2017-09-08T08:28:23.132Z,13.10
2017-09-08T08:30:50.680Z,13.27
2017-09-08T08:33:18.195Z,8.60
2017-09-08T08:35:45.730Z,10.27
2017-09-08T08:38:14.030Z,15.13
2017-09-08T08:40:41.607Z,8.90
2017-09-08T08:43:09.170Z,9.60
2017-09-08T08:45:36.712Z,14.70
2017-09-08T08:48:04.240Z,13.23
2017-09-08T08:50:31.807Z,10.20
2017-09-08T08:53:00.097Z,11.33
2017-09-08T08:55:27.671Z,16.93
2017-09-08T08:57:55.228Z,15.00
2017-09-08T09:00:22.759Z,9.40
2017-09-08T09:02:50.749Z,16.40
2017-09-08T09:05:18.316Z,14.63
2017-09-08T09:07:45.871Z,13.50
2017-09-08T09:10:13.427Z,16.30
2017-09-08T09:12:40.969Z,18.80
2017-09-08T09:15:08.531Z,12.90
2017-09-08T09:17:36.079Z,15.30
2017-09-08T09:20:03.625Z,14.77
2017-09-08T09:22:31.236Z,9.27
2017-09-08T09:24:58.771Z,12.27
2017-09-08T09:27:26.306Z,6.80
2017-09-08T09:29:53.841Z,16.63
2017-09-08T09:32:22.157Z,6.03
2017-09-08T09:34:49.718Z,6.50
2017-09-08T09:37:17.261Z,17.03
2017-09-08T09:39:45.054Z,10.80
2017-09-08T09:42:12.604Z,11.73
2017-09-08T09:44:40.161Z,13.07
2017-09-08T09:47:08.448Z,7.17
2017-09-08T09:49:35.987Z,12.37
2017-09-08T09:52:03.807Z,11.63
2017-09-08T09:54:31.350Z,9.27
2017-09-08T09:56:58.870Z,10.23
2017-09-08T09:59:27.189Z,6.80
2017-09-08T10:01:54.727Z,10.30
2017-09-08T10:04:22.726Z,13.27
2017-09-08T10:06:50.254Z,6.83
2017-09-08T10:09:17.779Z,13.33
2017-09-08T10:11:45.347Z,7.40
2017-09-08T10:14:12.885Z,8.50
2017-09-08T10:16:40.432Z,10.33
2017-09-08T10:19:08.083Z,12.70
2017-09-08T10:21:36.418Z,9.43
2017-09-08T10:24:04.083Z,5.17
2017-09-08T10:26:32.560Z,8.57
2017-09-08T10:29:00.289Z,8.03
2017-09-08T10:31:28.660Z,7.43
2017-09-08T10:33:56.237Z,3.10
2017-09-08T10:36:24.161Z,4.63
2017-09-08T10:38:51.680Z,8.27
2017-09-08T10:41:19.200Z,8.07
2017-09-08T10:43:46.750Z,5.40
2017-09-08T10:46:14.292Z,8.67
2017-09-08T10:48:41.826Z,5.33
2017-09-08T10:51:09.406Z,7.77
2017-09-08T10:53:36.973Z,10.43
2017-09-08T10:56:06.234Z,5.63
2017-09-08T10:58:33.807Z,5.43
2017-09-08T11:01:01.339Z,6.60
2017-09-08T11:03:29.414Z,6.53
2017-09-08T11:05:56.949Z,6.67
2017-09-08T11:08:24.490Z,7.63
2017-09-08T11:10:52.018Z,6.53
2017-09-08T11:13:19.563Z,7.13
2017-09-08T11:15:47.389Z,6.60
2017-09-08T11:18:14.941Z,6.20
2017-09-08T11:20:42.507Z,7.37
2017-09-08T11:23:10.074Z,7.70
2017-09-08T11:25:37.644Z,3.17
2017-09-08T11:28:05.465Z,6.43
2017-09-08T11:30:33.018Z,5.90
2017-09-08T11:33:06.519Z,6.33
2017-09-08T11:35:39.627Z,6.50
2017-09-08T11:38:07.162Z,5.20
2017-09-08T11:40:34.698Z,7.43
2017-09-08T11:43:02.272Z,4.60
2017-09-08T11:45:29.825Z,4.03
2017-09-08T11:47:57.350Z,4.30
2017-09-08T11:50:24.910Z,8.10
2017-09-08T11:52:52.455Z,4.67
2017-09-08T11:55:20.261Z,2.53
2017-09-08T11:57:47.796Z,3.43
2017-09-08T12:00:15.383Z,5.67
2017-09-08T12:02:45.456Z,5.40
2017-09-08T12:05:12.991Z,4.77
2017-09-08T12:07:40.586Z,6.50
2017-09-08T12:10:09.360Z,6.63
2017-09-08T12:12:36.917Z,3.50
2017-09-08T12:15:04.484Z,5.23
2017-09-08T12:17:32.275Z,4.13
2017-09-08T12:19:59.829Z,3.37
2017-09-08T12:22:27.729Z,3.57
2017-09-08T12:24:55.273Z,4.43
2017-09-08T12:27:22.791Z,5.00
2017-09-08T12:29:50.322Z,3.80
2017-09-08T12:32:17.859Z,4.33
2017-09-08T12:34:45.418Z,2.93
2017-09-08T12:37:12.974Z,7.50
2017-09-08T12:39:40.518Z,4.97
2017-09-08T12:42:08.044Z,5.63
2017-09-08T12:44:35.574Z,3.50
2017-09-08T12:47:03.118Z,7.87
2017-09-08T12:49:30.711Z,7.00
2017-09-08T12:51:58.246Z,3.93
2017-09-08T12:54:25.785Z,4.40
2017-09-08T12:56:53.323Z,2.53
2017-09-08T12:59:20.858Z,8.77
2017-09-08T13:01:48.419Z,3.20
2017-09-08T13:04:15.951Z,4.70
2017-09-08T13:06:43.765Z,4.30
2017-09-08T13:09:11.315Z,7.40
2017-09-08T13:11:39.610Z,4.53
2017-09-08T13:14:07.134Z,3.60
2017-09-08T13:16:34.668Z,2.97
2017-09-08T13:19:02.202Z,3.70
2017-09-08T13:21:29.757Z,4.40
2017-09-08T13:23:58.064Z,3.77
2017-09-08T13:26:25.663Z,16.40
2017-09-08T13:28:53.236Z,5.90
2017-09-08T13:31:21.432Z,5.00
2017-09-08T13:33:48.936Z,5.03
2017-09-08T13:36:16.507Z,7.43
2017-09-08T13:38:44.020Z,5.40
2017-09-08T13:41:12.433Z,5.57
2017-09-08T13:43:39.976Z,5.77
2017-09-08T13:46:07.545Z,4.67
2017-09-08T13:48:35.088Z,5.60
2017-09-08T13:51:02.624Z,5.17
2017-09-08T13:53:30.527Z,2.70
2017-09-08T13:55:58.062Z,3.53
2017-09-08T13:58:25.606Z,2.13
2017-09-08T14:00:53.149Z,4.20
2017-09-08T14:03:20.664Z,3.43
2017-09-08T14:05:48.762Z,2.73
2017-09-08T14:08:16.326Z,5.77
2017-09-08T14:10:44.180Z,5.67
2017-09-08T14:13:11.731Z,6.63
2017-09-08T14:15:39.269Z,6.03
2017-09-08T14:18:06.815Z,6.17
2017-09-08T14:20:34.350Z,8.03
2017-09-08T14:23:01.894Z,9.63
2017-09-08T14:25:29.431Z,4.07
2017-09-08T14:27:57.339Z,3.30
2017-09-08T14:30:25.654Z,4.27
2017-09-08T14:32:53.201Z,5.43
2017-09-08T14:35:20.791Z,9.07
2017-09-08T14:37:49.108Z,3.00
2017-09-08T14:40:16.652Z,4.30
2017-09-08T14:42:44.195Z,4.17
2017-09-08T14:45:11.731Z,3.90
2017-09-08T14:47:39.261Z,4.87
2017-09-08T14:50:06.821Z,5.57
2017-09-08T14:52:34.370Z,5.07
2017-09-08T14:55:01.887Z,3.73
2017-09-08T14:57:29.423Z,4.47
2017-09-08T14:59:56.949Z,6.70
2017-09-08T15:02:24.808Z,3.20
2017-09-08T15:04:52.342Z,4.03
2017-09-08T15:07:20.680Z,4.10
2017-09-08T15:09:48.210Z,6.97
2017-09-08T15:12:15.748Z,5.70
2017-09-08T15:14:43.290Z,3.73
2017-09-08T15:17:10.836Z,4.73
2017-09-08T15:19:38.371Z,7.57
2017-09-08T15:22:05.913Z,4.50
2017-09-08T15:24:33.680Z,4.80
2017-09-08T15:27:01.247Z,6.00
2017-09-08T15:29:28.780Z,10.00
2017-09-08T15:31:56.315Z,5.00
2017-09-08T15:34:23.862Z,7.50
2017-09-08T15:36:52.489Z,5.40
2017-09-08T15:39:20.032Z,5.40
2017-09-08T15:41:47.567Z,5.63
2017-09-08T15:44:15.095Z,24.60
2017-09-08T15:46:42.618Z,11.80
2017-09-08T15:49:10.160Z,3.73
2017-09-08T15:51:37.689Z,9.10
2017-09-08T15:54:05.500Z,4.87
2017-09-08T15:56:33.029Z,10.33
2017-09-08T15:59:00.570Z,16.80
2017-09-08T16:01:28.118Z,6.80
2017-09-08T16:03:55.637Z,5.47
2017-09-08T16:06:23.168Z,6.33
2017-09-08T16:08:50.782Z,11.00
2017-09-08T16:11:18.707Z,10.73
2017-09-08T16:13:46.242Z,7.07
2017-09-08T16:16:14.537Z,5.17
2017-09-08T16:18:42.074Z,7.47
2017-09-08T16:21:09.619Z,7.33
2017-09-08T16:23:37.172Z,9.50
2017-09-08T16:26:04.693Z,5.33
2017-09-08T16:28:32.581Z,7.13
2017-09-08T16:31:00.126Z,4.97
2017-09-08T16:33:27.661Z,3.30
2017-09-08T16:35:55.223Z,4.43
2017-09-08T16:38:22.740Z,3.37
2017-09-08T16:40:50.283Z,5.13
2017-09-08T16:43:17.799Z,4.70
2017-09-08T16:45:45.604Z,4.50
2017-09-08T16:48:13.131Z,4.83
2017-09-08T16:50:40.649Z,7.20
2017-09-08T16:53:08.184Z,7.83
2017-09-08T16:55:35.704Z,7.53
2017-09-08T16:58:03.235Z,7.07
2017-09-08T17:00:30.753Z,5.77
2017-09-08T17:02:58.289Z,4.33
2017-09-08T17:05:25.800Z,5.80
2017-09-08T17:07:53.329Z,7.10
2017-09-08T17:10:20.874Z,4.90
2017-09-08T17:12:48.401Z,2.30
2017-09-08T17:15:15.937Z,8.93
2017-09-08T17:17:44.232Z,4.60
2017-09-08T17:20:11.780Z,3.40
2017-09-08T17:22:39.305Z,3.17
2017-09-08T17:25:06.859Z,6.10
2017-09-08T17:27:34.404Z,4.37
2017-09-08T17:30:01.929Z,5.07
2017-09-08T17:32:29.474Z,2.30
2017-09-08T17:34:57.974Z,4.47
2017-09-08T17:37:25.529Z,2.87
2017-09-08T17:39:53.074Z,3.97
2017-09-08T17:42:20.602Z,4.47
2017-09-08T17:44:48.448Z,3.53
2017-09-08T17:47:15.997Z,5.27
2017-09-08T17:49:44.288Z,4.50
2017-09-08T17:52:12.629Z,8.50
2017-09-08T17:54:40.197Z,5.63
2017-09-08T17:57:08.093Z,9.63
2017-09-08T17:59:35.616Z,5.60
2017-09-08T18:02:03.141Z,4.53
2017-09-08T18:04:30.677Z,8.93
2017-09-08T18:06:58.214Z,4.80
2017-09-08T18:09:25.760Z,6.27
2017-09-08T18:11:53.344Z,5.13
2017-09-08T18:14:20.886Z,7.80
2017-09-08T18:16:48.418Z,12.80
2017-09-08T18:19:15.961Z,10.97
2017-09-08T18:21:43.488Z,6.70
2017-09-08T18:24:11.045Z,8.87
2017-09-08T18:26:38.583Z,6.03
2017-09-08T18:29:06.126Z,5.50
2017-09-08T18:31:33.748Z,6.80
2017-09-08T18:34:01.282Z,6.17
2017-09-08T18:36:28.806Z,8.33
2017-09-08T18:38:56.363Z,5.57
2017-09-08T18:41:23.886Z,5.33
2017-09-08T18:43:51.717Z,5.23
2017-09-08T18:46:19.274Z,5.37
2017-09-08T18:48:46.852Z,7.27
2017-09-08T18:51:14.407Z,6.27
2017-09-08T18:53:42.015Z,4.57
2017-09-08T18:56:09.554Z,8.80
2017-09-08T18:58:37.610Z,4.60
2017-09-08T19:01:05.174Z,10.90
2017-09-08T19:03:32.723Z,11.70
2017-09-08T19:06:00.235Z,4.83
2017-09-08T19:08:27.795Z,4.10
2017-09-08T19:10:55.333Z,3.07
2017-09-08T19:13:22.869Z,4.60
2017-09-08T19:15:50.478Z,4.47
2017-09-08T19:18:19.236Z,3.30
2017-09-08T19:20:47.539Z,4.63
2017-09-08T19:23:15.069Z,4.83
2017-09-08T19:25:42.631Z,4.17
2017-09-08T19:28:10.189Z,7.43
2017-09-08T19:30:37.769Z,6.17
2017-09-08T19:33:05.287Z,3.70
2017-09-08T19:35:32.821Z,6.90
2017-09-08T19:38:00.376Z,4.60
2017-09-08T19:40:27.885Z,5.30
2017-09-08T19:42:55.438Z,4.67
2017-09-08T19:45:23.739Z,5.23
2017-09-08T19:47:51.301Z,3.30
2017-09-08T19:50:18.840Z,6.07
2017-09-08T19:52:47.442Z,3.17
2017-09-08T19:55:15.030Z,3.50
2017-09-08T19:57:42.579Z,3.70
2017-09-08T20:00:10.180Z,2.83
2017-09-08T20:02:38.234Z,3.70
2017-09-08T20:05:05.832Z,2.83
2017-09-08T20:07:33.391Z,4.57
2017-09-08T20:10:00.923Z,2.50
2017-09-08T20:12:28.487Z,2.57
2017-09-08T20:14:56.082Z,3.90
2017-09-08T20:17:23.627Z,4.73
2017-09-08T20:19:51.951Z,3.20
2017-09-08T20:22:19.519Z,3.07
2017-09-08T20:24:47.091Z,4.30
2017-09-08T20:27:14.842Z,4.20
2017-09-08T20:29:43.814Z,4.50
2017-09-08T20:32:11.441Z,3.27
2017-09-08T20:34:39.787Z,8.80
2017-09-08T20:37:07.611Z,7.57
2017-09-08T20:39:35.200Z,7.47
2017-09-08T20:42:02.861Z,6.30
2017-09-08T20:44:31.345Z,4.50
2017-09-08T20:46:59.521Z,4.17
2017-09-08T20:49:28.842Z,4.30
2017-09-08T20:51:57.100Z,6.23
2017-09-08T20:54:25.023Z,3.43
2017-09-08T20:56:53.483Z,4.90
2017-09-08T20:59:24.337Z,2.63
2017-09-08T21:01:52.873Z,4.23
2017-09-08T21:04:21.685Z,3.93
2017-09-08T21:06:50.624Z,3.33
2017-09-08T21:09:19.929Z,3.20
2017-09-08T21:11:47.493Z,5.60
2017-09-08T21:14:15.485Z,4.07
2017-09-08T21:16:43.197Z,6.13
2017-09-08T21:19:11.121Z,5.23
2017-09-08T21:21:40.968Z,6.37
2017-09-08T21:24:13.738Z,5.10
2017-09-08T21:26:42.953Z,3.23
2017-09-08T21:29:13.839Z,9.60
2017-09-08T21:31:41.476Z,3.23
2017-09-08T21:34:09.229Z,5.53
2017-09-08T21:36:37.406Z,4.67
2017-09-08T21:39:05.085Z,4.70
2017-09-08T21:41:34.639Z,3.57
2017-09-08T21:44:02.618Z,3.43
2017-09-08T21:46:30.203Z,4.30
2017-09-08T21:49:03.248Z,3.70
2017-09-08T21:51:30.854Z,5.80
2017-09-08T21:53:58.780Z,3.77
2017-09-08T21:56:26.465Z,3.80
2017-09-08T21:58:56.722Z,2.90
2017-09-08T22:01:25.476Z,7.77
2017-09-08T22:03:54.066Z,5.20
2017-09-08T22:06:21.694Z,2.30
2017-09-08T22:08:49.401Z,3.77
2017-09-08T22:11:17.673Z,3.90
2017-09-08T22:13:45.265Z,6.20
2017-09-08T22:16:25.218Z,3.33
2017-09-08T22:18:52.872Z,6.20
2017-09-08T22:21:20.657Z,5.97
2017-09-08T22:23:51.537Z,4.33
2017-09-08T22:26:19.655Z,3.40
2017-09-08T22:28:47.212Z,4.30
2017-09-08T22:31:14.928Z,4.03
2017-09-08T22:33:42.477Z,2.77
2017-09-08T22:36:10.031Z,4.83
2017-09-08T22:38:43.483Z,4.07
2017-09-08T22:41:11.379Z,3.90
2017-09-08T22:43:40.535Z,3.80
2017-09-08T22:46:08.147Z,3.73
2017-09-08T22:48:35.696Z,4.03
2017-09-08T22:51:03.228Z,2.63
2017-09-08T22:53:30.823Z,3.70
2017-09-08T22:55:58.352Z,3.93
2017-09-08T22:58:26.823Z,4.00
2017-09-08T23:00:55.051Z,2.83
2017-09-08T23:03:23.163Z,5.90
2017-09-08T23:05:51.586Z,3.57
2017-09-08T23:08:19.726Z,3.13
2017-09-08T23:10:49.040Z,6.80
2017-09-08T23:13:17.167Z,6.50
2017-09-08T23:15:45.701Z,5.50
2017-09-08T23:18:13.749Z,14.07
2017-09-08T23:20:41.577Z,9.03
2017-09-08T23:23:09.714Z,3.30
2017-09-08T23:25:39.092Z,5.23
2017-09-08T23:28:07.333Z,1.70
2017-09-08T23:30:37.313Z,4.03
2017-09-08T23:33:05.805Z,3.27
2017-09-08T23:35:33.878Z,3.77
2017-09-08T23:38:02.147Z,3.47
2017-09-08T23:40:30.183Z,4.70
2017-09-08T23:42:57.875Z,5.43
2017-09-08T23:45:25.706Z,4.07
2017-09-08T23:47:53.309Z,9.07
2017-09-08T23:50:20.860Z,3.73
2017-09-08T23:52:48.404Z,2.47
2017-09-08T23:55:15.923Z,3.17
2017-09-08T23:57:43.729Z,3.93
